sensor_id;sensor_type;location;lat;lon;timestamp;pressure;altitude;pressure_sealevel;temperature;humidity
56721;BME280;53183;47.412;18.884;2022-11-03T00:01:46;100022.00;;;10.58;100.00
56721;BME280;53183;47.412;18.884;2022-11-03T00:04:16;100022.34;;;10.50;100.00
56721;BME280;53183;47.412;18.884;2022-11-03T00:06:44;100016.53;;;10.42;100.00
56721;BME280;53183;47.412;18.884;2022-11-03T00:09:13;100008.03;;;10.36;100.00
56721;BME280;53183;47.412;18.884;2022-11-03T00:11:42;100008.16;;;10.32;100.00
56721;BME280;53183;47.412;18.884;2022-11-03T00:14:10;100006.53;;;10.30;100.00
56721;BME280;53183;47.412;18.884;2022-11-03T00:16:38;100009.31;;;10.25;100.00
56721;BME280;53183;47.412;18.884;2022-11-03T00:19:07;100009.47;;;10.22;100.00
56721;BME280;53183;47.412;18.884;2022-11-03T00:21:34;100004.25;;;10.21;100.00
56721;BME280;53183;47.412;18.884;2022-11-03T00:24:02;100010.53;;;10.18;100.00
56721;BME280;53183;47.412;18.884;2022-11-03T00:26:31;100000.81;;;10.19;100.00
56721;BME280;53183;47.412;18.884;2022-11-03T00:29:01;100008.88;;;10.16;100.00
56721;BME280;53183;47.412;18.884;2022-11-03T00:31:30;100003.72;;;10.13;100.00
56721;BME280;53183;47.412;18.884;2022-11-03T00:33:59;100005.28;;;10.17;100.00
56721;BME280;53183;47.412;18.884;2022-11-03T00:36:28;100010.94;;;10.09;100.00
56721;BME280;53183;47.412;18.884;2022-11-03T00:38:56;100016.03;;;10.14;100.00
56721;BME280;53183;47.412;18.884;2022-11-03T00:41:24;100011.84;;;10.08;100.00
56721;BME280;53183;47.412;18.884;2022-11-03T00:44:22;100000.44;;;10.07;100.00
56721;BME280;53183;47.412;18.884;2022-11-03T00:46:49;100002.81;;;10.14;100.00
56721;BME280;53183;47.412;18.884;2022-11-03T00:49:16;100003.53;;;10.17;100.00
56721;BME280;53183;47.412;18.884;2022-11-03T00:51:44;99997.38;;;10.17;100.00
56721;BME280;53183;47.412;18.884;2022-11-03T00:54:11;99991.44;;;10.12;100.00
56721;BME280;53183;47.412;18.884;2022-11-03T00:56:40;99990.66;;;10.09;100.00
56721;BME280;53183;47.412;18.884;2022-11-03T01:02:30;99990.38;;;10.16;100.00
56721;BME280;53183;47.412;18.884;2022-11-03T01:04:57;99991.19;;;10.18;100.00
56721;BME280;53183;47.412;18.884;2022-11-03T01:07:43;99982.06;;;10.25;100.00
56721;BME280;53183;47.412;18.884;2022-11-03T01:10:10;99982.06;;;10.25;100.00
56721;BME280;53183;47.412;18.884;2022-11-03T01:12:37;99978.31;;;10.30;100.00
56721;BME280;53183;47.412;18.884;2022-11-03T01:15:05;99980.13;;;10.30;100.00
56721;BME280;53183;47.412;18.884;2022-11-03T01:17:32;99972.91;;;10.33;100.00
56721;BME280;53183;47.412;18.884;2022-11-03T01:19:59;99968.84;;;10.25;100.00
56721;BME280;53183;47.412;18.884;2022-11-03T01:22:26;99974.28;;;10.22;100.00
56721;BME280;53183;47.412;18.884;2022-11-03T01:24:53;99966.56;;;10.17;100.00
56721;BME280;53183;47.412;18.884;2022-11-03T01:27:20;99978.31;;;10.30;100.00
56721;BME280;53183;47.412;18.884;2022-11-03T01:29:50;99979.38;;;10.26;100.00
56721;BME280;53183;47.412;18.884;2022-11-03T01:32:17;99969.34;;;10.14;100.00
56721;BME280;53183;47.412;18.884;2022-11-03T01:34:44;99981.69;;;10.14;100.00
56721;BME280;53183;47.412;18.884;2022-11-03T01:37:11;99983.00;;;10.03;100.00
56721;BME280;53183;47.412;18.884;2022-11-03T01:39:38;99988.47;;;9.99;100.00
56721;BME280;53183;47.412;18.884;2022-11-03T01:42:05;99986.91;;;9.95;100.00
56721;BME280;53183;47.412;18.884;2022-11-03T01:44:35;99978.13;;;9.94;100.00
56721;BME280;53183;47.412;18.884;2022-11-03T01:47:32;99983.72;;;9.86;100.00
56721;BME280;53183;47.412;18.884;2022-11-03T01:50:04;99981.16;;;9.85;100.00
56721;BME280;53183;47.412;18.884;2022-11-03T01:52:36;99977.13;;;9.76;100.00
56721;BME280;53183;47.412;18.884;2022-11-03T01:55:11;99982.41;;;9.76;100.00
56721;BME280;53183;47.412;18.884;2022-11-03T02:00:13;99975.09;;;9.62;100.00
56721;BME280;53183;47.412;18.884;2022-11-03T02:02:42;99971.63;;;9.60;100.00
56721;BME280;53183;47.412;18.884;2022-11-03T02:05:12;99968.22;;;9.58;100.00
56721;BME280;53183;47.412;18.884;2022-11-03T02:07:50;99969.06;;;9.59;100.00
56721;BME280;53183;47.412;18.884;2022-11-03T02:10:19;99966.47;;;9.57;100.00
56721;BME280;53183;47.412;18.884;2022-11-03T02:12:47;99972.44;;;9.62;100.00
56721;BME280;53183;47.412;18.884;2022-11-03T02:15:15;99979.41;;;9.63;100.00
56721;BME280;53183;47.412;18.884;2022-11-03T02:17:45;99979.63;;;9.59;100.00
56721;BME280;53183;47.412;18.884;2022-11-03T02:20:17;99985.16;;;9.53;100.00
56721;BME280;53183;47.412;18.884;2022-11-03T02:25:44;99989.34;;;9.58;100.00
56721;BME280;53183;47.412;18.884;2022-11-03T02:28:14;99986.94;;;9.52;100.00
56721;BME280;53183;47.412;18.884;2022-11-03T02:39:08;99988.63;;;9.33;100.00
56721;BME280;53183;47.412;18.884;2022-11-03T02:41:38;99980.63;;;9.34;100.00
56721;BME280;53183;47.412;18.884;2022-11-03T02:44:12;99984.44;;;9.27;100.00
56721;BME280;53183;47.412;18.884;2022-11-03T02:46:42;99983.09;;;9.17;100.00
56721;BME280;53183;47.412;18.884;2022-11-03T02:49:12;99974.56;;;9.10;100.00
56721;BME280;53183;47.412;18.884;2022-11-03T02:51:40;99974.69;;;9.07;100.00
56721;BME280;53183;47.412;18.884;2022-11-03T02:56:49;99979.94;;;9.09;100.00
56721;BME280;53183;47.412;18.884;2022-11-03T02:59:23;99973.91;;;9.05;100.00
56721;BME280;53183;47.412;18.884;2022-11-03T03:02:21;99973.22;;;9.00;100.00
56721;BME280;53183;47.412;18.884;2022-11-03T03:04:50;99971.78;;;8.91;100.00
56721;BME280;53183;47.412;18.884;2022-11-03T03:07:29;99957.28;;;8.81;100.00
56721;BME280;53183;47.412;18.884;2022-11-03T03:10:11;99965.41;;;8.75;100.00
56721;BME280;53183;47.412;18.884;2022-11-03T03:12:44;99970.06;;;8.68;100.00
56721;BME280;53183;47.412;18.884;2022-11-03T03:15:13;99964.31;;;8.59;100.00
56721;BME280;53183;47.412;18.884;2022-11-03T03:20:45;99973.41;;;8.50;100.00
56721;BME280;53183;47.412;18.884;2022-11-03T03:23:23;99973.81;;;8.39;100.00
56721;BME280;53183;47.412;18.884;2022-11-03T03:26:00;99969.59;;;8.34;100.00
56721;BME280;53183;47.412;18.884;2022-11-03T03:28:40;99973.47;;;8.23;100.00
56721;BME280;53183;47.412;18.884;2022-11-03T03:31:12;99972.09;;;8.13;100.00
56721;BME280;53183;47.412;18.884;2022-11-03T03:33:41;99972.41;;;8.04;100.00
56721;BME280;53183;47.412;18.884;2022-11-03T03:36:16;99966.66;;;7.93;100.00
56721;BME280;53183;47.412;18.884;2022-11-03T03:38:47;99962.53;;;7.86;100.00
56721;BME280;53183;47.412;18.884;2022-11-03T03:41:16;99973.34;;;7.78;100.00
56721;BME280;53183;47.412;18.884;2022-11-03T03:43:50;99968.38;;;7.69;100.00
56721;BME280;53183;47.412;18.884;2022-11-03T03:46:19;99974.06;;;7.57;100.00
56721;BME280;53183;47.412;18.884;2022-11-03T03:48:48;99972.31;;;7.57;100.00
56721;BME280;53183;47.412;18.884;2022-11-03T03:51:17;99975.12;;;7.51;100.00
56721;BME280;53183;47.412;18.884;2022-11-03T03:53:49;99965.50;;;7.50;100.00
56721;BME280;53183;47.412;18.884;2022-11-03T03:56:35;99973.41;;;7.50;100.00
56721;BME280;53183;47.412;18.884;2022-11-03T03:59:04;99959.69;;;7.40;100.00
56721;BME280;53183;47.412;18.884;2022-11-03T04:01:32;99965.22;;;7.33;100.00
56721;BME280;53183;47.412;18.884;2022-11-03T04:03:59;99981.34;;;7.22;100.00
56721;BME280;53183;47.412;18.884;2022-11-03T04:06:26;99979.53;;;7.24;100.00
56721;BME280;53183;47.412;18.884;2022-11-03T04:08:53;99975.28;;;7.20;100.00
56721;BME280;53183;47.412;18.884;2022-11-03T04:11:20;99976.44;;;7.11;100.00
56721;BME280;53183;47.412;18.884;2022-11-03T04:14:08;99980.97;;;7.06;100.00
56721;BME280;53183;47.412;18.884;2022-11-03T04:16:54;99978.34;;;7.06;100.00
56721;BME280;53183;47.412;18.884;2022-11-03T04:19:39;99973.34;;;6.98;100.00
56721;BME280;53183;47.412;18.884;2022-11-03T04:22:29;99977.97;;;6.90;100.00
56721;BME280;53183;47.412;18.884;2022-11-03T04:24:57;99965.78;;;6.88;100.00
56721;BME280;53183;47.412;18.884;2022-11-03T04:27:34;99967.41;;;6.92;100.00
56721;BME280;53183;47.412;18.884;2022-11-03T04:32:37;99963.91;;;7.19;100.00
56721;BME280;53183;47.412;18.884;2022-11-03T04:37:48;99969.41;;;7.12;100.00
56721;BME280;53183;47.412;18.884;2022-11-03T04:40:17;99964.19;;;7.10;100.00
56721;BME280;53183;47.412;18.884;2022-11-03T04:42:44;99974.88;;;7.05;100.00
56721;BME280;53183;47.412;18.884;2022-11-03T04:45:22;99975.88;;;7.01;100.00
56721;BME280;53183;47.412;18.884;2022-11-03T04:47:50;99979.44;;;6.99;100.00
56721;BME280;53183;47.412;18.884;2022-11-03T04:50:20;99973.38;;;6.97;100.00
56721;BME280;53183;47.412;18.884;2022-11-03T04:52:52;99977.16;;;6.88;100.00
56721;BME280;53183;47.412;18.884;2022-11-03T04:55:21;99978.13;;;6.86;100.00
56721;BME280;53183;47.412;18.884;2022-11-03T04:57:57;99968.47;;;6.86;100.00
56721;BME280;53183;47.412;18.884;2022-11-03T05:00:25;99974.00;;;6.77;100.00
56721;BME280;53183;47.412;18.884;2022-11-03T05:02:52;99972.22;;;6.77;100.00
56721;BME280;53183;47.412;18.884;2022-11-03T05:05:24;99981.88;;;6.77;100.00
56721;BME280;53183;47.412;18.884;2022-11-03T05:07:56;99984.28;;;6.85;100.00
56721;BME280;53183;47.412;18.884;2022-11-03T05:10:26;99967.41;;;6.92;100.00
56721;BME280;53183;47.412;18.884;2022-11-03T05:12:55;99974.38;;;6.93;100.00
56721;BME280;53183;47.412;18.884;2022-11-03T05:15:28;99968.38;;;6.89;100.00
56721;BME280;53183;47.412;18.884;2022-11-03T05:17:57;99968.31;;;6.91;100.00
56721;BME280;53183;47.412;18.884;2022-11-03T05:23:03;99970.81;;;6.95;100.00
56721;BME280;53183;47.412;18.884;2022-11-03T05:25:41;99969.75;;;7.01;100.00
56721;BME280;53183;47.412;18.884;2022-11-03T05:28:19;99975.72;;;7.06;100.00
56721;BME280;53183;47.412;18.884;2022-11-03T05:30:47;99969.59;;;7.05;100.00
56721;BME280;53183;47.412;18.884;2022-11-03T05:33:33;99971.97;;;7.13;100.00
56721;BME280;53183;47.412;18.884;2022-11-03T05:36:11;99972.91;;;7.12;100.00
56721;BME280;53183;47.412;18.884;2022-11-03T05:38:40;99976.53;;;7.08;100.00
56721;BME280;53183;47.412;18.884;2022-11-03T05:41:24;99971.22;;;7.10;100.00
56721;BME280;53183;47.412;18.884;2022-11-03T05:43:56;99975.38;;;7.17;100.00
56721;BME280;53183;47.412;18.884;2022-11-03T05:46:29;99974.41;;;7.19;100.00
56721;BME280;53183;47.412;18.884;2022-11-03T05:49:00;99969.81;;;7.26;100.00
56721;BME280;53183;47.412;18.884;2022-11-03T05:51:32;99966.44;;;7.49;100.00
56721;BME280;53183;47.412;18.884;2022-11-03T05:54:02;99965.41;;;7.53;100.00
56721;BME280;53183;47.412;18.884;2022-11-03T05:56:31;99967.44;;;7.71;100.00
56721;BME280;53183;47.412;18.884;2022-11-03T05:58:59;99970.72;;;7.78;100.00
56721;BME280;53183;47.412;18.884;2022-11-03T06:01:33;99979.78;;;7.94;100.00
56721;BME280;53183;47.412;18.884;2022-11-03T06:06:51;99997.84;;;8.29;100.00
56721;BME280;53183;47.412;18.884;2022-11-03T06:09:22;100002.78;;;8.39;100.00
56721;BME280;53183;47.412;18.884;2022-11-03T06:11:52;100005.66;;;8.57;100.00
56721;BME280;53183;47.412;18.884;2022-11-03T06:14:22;100014.19;;;8.63;98.82
56721;BME280;53183;47.412;18.884;2022-11-03T06:16:56;100023.78;;;8.64;98.63
56721;BME280;53183;47.412;18.884;2022-11-03T06:19:38;100022.75;;;8.68;98.85
56721;BME280;53183;47.412;18.884;2022-11-03T06:24:39;100040.53;;;8.87;99.24
56721;BME280;53183;47.412;18.884;2022-11-03T06:27:12;100044.63;;;8.94;99.09
56721;BME280;53183;47.412;18.884;2022-11-03T06:29:46;100041.56;;;9.05;98.34
56721;BME280;53183;47.412;18.884;2022-11-03T06:32:14;100043.19;;;9.09;98.43
56721;BME280;53183;47.412;18.884;2022-11-03T06:34:46;100037.56;;;9.18;98.49
56721;BME280;53183;47.412;18.884;2022-11-03T06:39:47;100038.72;;;9.55;96.16
56721;BME280;53183;47.412;18.884;2022-11-03T06:42:18;100038.28;;;9.66;95.18
56721;BME280;53183;47.412;18.884;2022-11-03T06:44:48;100034.34;;;9.76;94.92
56721;BME280;53183;47.412;18.884;2022-11-03T06:47:25;100037.37;;;9.87;94.54
56721;BME280;53183;47.412;18.884;2022-11-03T06:49:56;100037.81;;;9.98;94.32
56721;BME280;53183;47.412;18.884;2022-11-03T06:52:36;100038.19;;;10.09;93.44
56721;BME280;53183;47.412;18.884;2022-11-03T06:55:21;100044.13;;;10.15;94.08
56721;BME280;53183;47.412;18.884;2022-11-03T06:57:51;100041.88;;;10.27;94.35
56721;BME280;53183;47.412;18.884;2022-11-03T07:05:43;100039.22;;;10.67;98.95
56721;BME280;53183;47.412;18.884;2022-11-03T07:08:32;100045.81;;;10.77;99.94
56721;BME280;53183;47.412;18.884;2022-11-03T07:11:10;100043.31;;;10.93;99.50
56721;BME280;53183;47.412;18.884;2022-11-03T07:13:41;100045.75;;;10.97;99.78
56721;BME280;53183;47.412;18.884;2022-11-03T07:16:15;100048.53;;;11.13;99.49
56721;BME280;53183;47.412;18.884;2022-11-03T07:18:45;100049.88;;;11.22;99.55
56721;BME280;53183;47.412;18.884;2022-11-03T07:21:35;100045.94;;;11.31;99.58
56721;BME280;53183;47.412;18.884;2022-11-03T07:24:15;100048.62;;;11.48;99.25
56721;BME280;53183;47.412;18.884;2022-11-03T07:26:43;100053.00;;;11.49;99.39
56721;BME280;53183;47.412;18.884;2022-11-03T07:29:22;100057.22;;;11.53;99.93
56721;BME280;53183;47.412;18.884;2022-11-03T07:31:52;100051.63;;;11.59;100.00
56721;BME280;53183;47.412;18.884;2022-11-03T07:34:26;100052.44;;;11.79;99.03
56721;BME280;53183;47.412;18.884;2022-11-03T07:36:56;100051.66;;;11.94;98.74
56721;BME280;53183;47.412;18.884;2022-11-03T07:39:27;100052.06;;;12.04;97.57
56721;BME280;53183;47.412;18.884;2022-11-03T07:41:56;100054.34;;;12.11;96.36
56721;BME280;53183;47.412;18.884;2022-11-03T07:44:27;100052.41;;;12.15;95.87
56721;BME280;53183;47.412;18.884;2022-11-03T07:46:54;100054.37;;;12.27;96.16
56721;BME280;53183;47.412;18.884;2022-11-03T07:49:27;100050.50;;;12.34;94.75
56721;BME280;53183;47.412;18.884;2022-11-03T07:51:56;100046.19;;;12.49;93.76
56721;BME280;53183;47.412;18.884;2022-11-03T07:54:28;100048.72;;;12.35;94.42
56721;BME280;53183;47.412;18.884;2022-11-03T07:57:03;100046.59;;;12.41;94.20
56721;BME280;53183;47.412;18.884;2022-11-03T07:59:43;100047.19;;;12.47;93.15
56721;BME280;53183;47.412;18.884;2022-11-03T08:02:33;100039.09;;;12.50;93.77
56721;BME280;53183;47.412;18.884;2022-11-03T08:05:02;100036.16;;;12.38;93.66
56721;BME280;53183;47.412;18.884;2022-11-03T08:07:29;100029.47;;;12.31;94.91
56721;BME280;53183;47.412;18.884;2022-11-03T08:09:57;100036.16;;;12.38;94.69
56721;BME280;53183;47.412;18.884;2022-11-03T08:12:24;100034.22;;;12.25;95.16
56721;BME280;53183;47.412;18.884;2022-11-03T08:14:51;100039.75;;;12.20;95.42
56721;BME280;53183;47.412;18.884;2022-11-03T08:17:18;100028.53;;;11.97;96.46
56721;BME280;53183;47.412;18.884;2022-11-03T08:19:46;100033.53;;;11.86;97.65
56721;BME280;53183;47.412;18.884;2022-11-03T08:22:13;100039.09;;;11.80;98.50
56721;BME280;53183;47.412;18.884;2022-11-03T08:24:40;100035.44;;;11.65;99.63
56721;BME280;53183;47.412;18.884;2022-11-03T08:27:07;100032.09;;;11.79;99.12
56721;BME280;53183;47.412;18.884;2022-11-03T08:29:34;100032.84;;;11.81;99.05
56721;BME280;53183;47.412;18.884;2022-11-03T08:32:01;100021.72;;;11.74;99.90
56721;BME280;53183;47.412;18.884;2022-11-03T08:34:29;100026.94;;;11.76;100.00
56721;BME280;53183;47.412;18.884;2022-11-03T08:36:56;100035.50;;;11.81;99.24
56721;BME280;53183;47.412;18.884;2022-11-03T08:39:23;100022.44;;;11.78;99.74
56721;BME280;53183;47.412;18.884;2022-11-03T08:41:50;100026.09;;;11.76;100.00
56721;BME280;53183;47.412;18.884;2022-11-03T08:44:17;100019.81;;;11.78;100.00
56721;BME280;53183;47.412;18.884;2022-11-03T08:46:45;100009.97;;;11.63;100.00
56721;BME280;53183;47.412;18.884;2022-11-03T08:49:12;100011.06;;;11.59;100.00
56721;BME280;53183;47.412;18.884;2022-11-03T08:51:39;100009.47;;;11.55;100.00
56721;BME280;53183;47.412;18.884;2022-11-03T08:54:10;100014.63;;;11.58;100.00
56721;BME280;53183;47.412;18.884;2022-11-03T08:56:37;100007.03;;;11.86;100.00
56721;BME280;53183;47.412;18.884;2022-11-03T08:59:04;100010.47;;;11.88;98.90
56721;BME280;53183;47.412;18.884;2022-11-03T09:01:31;100005.00;;;12.09;97.61
56721;BME280;53183;47.412;18.884;2022-11-03T09:03:59;100002.38;;;12.09;96.86
56721;BME280;53183;47.412;18.884;2022-11-03T09:06:26;100008.75;;;12.22;96.52
56721;BME280;53183;47.412;18.884;2022-11-03T09:08:53;100004.38;;;12.04;96.87
56721;BME280;53183;47.412;18.884;2022-11-03T09:11:40;100000.34;;;11.96;97.23
56721;BME280;53183;47.412;18.884;2022-11-03T09:14:07;100003.59;;;11.84;98.41
56721;BME280;53183;47.412;18.884;2022-11-03T09:16:34;100000.97;;;12.02;97.99
56721;BME280;53183;47.412;18.884;2022-11-03T09:19:02;100001.66;;;12.05;96.96
56721;BME280;53183;47.412;18.884;2022-11-03T09:21:29;99998.06;;;12.06;97.15
56721;BME280;53183;47.412;18.884;2022-11-03T09:23:56;100004.44;;;12.19;96.40
56721;BME280;53183;47.412;18.884;2022-11-03T09:26:26;99995.41;;;12.24;97.09
56721;BME280;53183;47.412;18.884;2022-11-03T09:28:53;99995.16;;;12.28;97.09
56721;BME280;53183;47.412;18.884;2022-11-03T09:31:20;99987.59;;;12.38;97.12
56721;BME280;53183;47.412;18.884;2022-11-03T09:33:47;99995.34;;;12.25;98.08
56721;BME280;53183;47.412;18.884;2022-11-03T09:36:14;99990.91;;;12.08;100.00
56721;BME280;53183;47.412;18.884;2022-11-03T09:38:41;99989.66;;;12.15;99.24
56721;BME280;53183;47.412;18.884;2022-11-03T09:41:09;99980.03;;;12.30;98.53
56721;BME280;53183;47.412;18.884;2022-11-03T09:44:03;99980.97;;;12.29;98.90
56721;BME280;53183;47.412;18.884;2022-11-03T09:46:31;99977.47;;;12.29;100.00
56721;BME280;53183;47.412;18.884;2022-11-03T09:49:02;99974.34;;;12.38;99.95
56721;BME280;53183;47.412;18.884;2022-11-03T09:51:34;99969.19;;;12.35;98.88
56721;BME280;53183;47.412;18.884;2022-11-03T09:54:03;99965.50;;;12.22;99.63
56721;BME280;53183;47.412;18.884;2022-11-03T09:56:34;99967.94;;;12.09;100.00
56721;BME280;53183;47.412;18.884;2022-11-03T09:59:12;99962.22;;;12.16;100.00
56721;BME280;53183;47.412;18.884;2022-11-03T10:01:41;99959.97;;;12.09;100.00
56721;BME280;53183;47.412;18.884;2022-11-03T10:04:11;99958.41;;;12.22;100.00
56721;BME280;53183;47.412;18.884;2022-11-03T10:06:39;99951.56;;;12.34;100.00
56721;BME280;53183;47.412;18.884;2022-11-03T10:09:12;99950.31;;;12.57;98.93
56721;BME280;53183;47.412;18.884;2022-11-03T10:11:41;99940.16;;;12.65;98.18
56721;BME280;53183;47.412;18.884;2022-11-03T10:14:12;99941.19;;;12.62;98.06
56721;BME280;53183;47.412;18.884;2022-11-03T10:16:41;99928.44;;;12.69;97.75
56721;BME280;53183;47.412;18.884;2022-11-03T10:19:11;99928.19;;;12.58;97.57
56721;BME280;53183;47.412;18.884;2022-11-03T10:21:41;99929.72;;;12.62;97.80
56721;BME280;53183;47.412;18.884;2022-11-03T10:24:12;99921.44;;;12.68;97.23
56721;BME280;53183;47.412;18.884;2022-11-03T10:26:50;99920.31;;;12.88;96.92
56721;BME280;53183;47.412;18.884;2022-11-03T10:29:23;99913.03;;;12.76;95.95
56721;BME280;53183;47.412;18.884;2022-11-03T10:31:53;99915.28;;;12.52;97.06
56721;BME280;53183;47.412;18.884;2022-11-03T10:37:09;99913.72;;;12.48;97.14
56721;BME280;53183;47.412;18.884;2022-11-03T10:39:38;99905.78;;;12.48;96.77
56721;BME280;53183;47.412;18.884;2022-11-03T10:42:16;99909.94;;;12.36;97.53
56721;BME280;53183;47.412;18.884;2022-11-03T10:44:43;99894.91;;;12.36;97.05
56721;BME280;53183;47.412;18.884;2022-11-03T10:47:22;99898.50;;;12.35;97.71
56721;BME280;53183;47.412;18.884;2022-11-03T10:49:50;99889.94;;;11.97;99.26
56721;BME280;53183;47.412;18.884;2022-11-03T10:52:22;99886.63;;;11.76;100.00
56721;BME280;53183;47.412;18.884;2022-11-03T10:54:52;99885.06;;;11.55;100.00
56721;BME280;53183;47.412;18.884;2022-11-03T10:57:21;99887.13;;;11.49;100.00
56721;BME280;53183;47.412;18.884;2022-11-03T10:59:50;99891.69;;;11.63;100.00
56721;BME280;53183;47.412;18.884;2022-11-03T11:02:21;99885.22;;;11.69;100.00
56721;BME280;53183;47.412;18.884;2022-11-03T11:04:54;99884.13;;;11.73;100.00
56721;BME280;53183;47.412;18.884;2022-11-03T11:07:25;99874.00;;;11.64;100.00
56721;BME280;53183;47.412;18.884;2022-11-03T11:09:55;99870.91;;;11.56;100.00
56721;BME280;53183;47.412;18.884;2022-11-03T11:12:23;99871.69;;;11.58;100.00
56721;BME280;53183;47.412;18.884;2022-11-03T11:22:48;99853.56;;;11.50;100.00
56721;BME280;53183;47.412;18.884;2022-11-03T11:25:17;99848.56;;;11.44;100.00
56721;BME280;53183;47.412;18.884;2022-11-03T11:37:44;99824.75;;;11.44;100.00
56721;BME280;53183;47.412;18.884;2022-11-03T11:48:33;99811.47;;;11.45;100.00
56721;BME280;53183;47.412;18.884;2022-11-03T11:51:01;99807.72;;;11.49;100.00
56721;BME280;53183;47.412;18.884;2022-11-03T11:53:48;99805.66;;;11.55;100.00
56721;BME280;53183;47.412;18.884;2022-11-03T11:56:41;99807.19;;;11.43;100.00
56721;BME280;53183;47.412;18.884;2022-11-03T11:59:18;99802.72;;;11.43;100.00
56721;BME280;53183;47.412;18.884;2022-11-03T12:01:52;99799.81;;;11.65;100.00
56721;BME280;53183;47.412;18.884;2022-11-03T12:04:29;99787.28;;;11.69;100.00
56721;BME280;53183;47.412;18.884;2022-11-03T12:06:59;99787.66;;;11.61;100.00
56721;BME280;53183;47.412;18.884;2022-11-03T12:09:27;99783.31;;;11.60;100.00
56721;BME280;53183;47.412;18.884;2022-11-03T12:11:56;99780.94;;;11.56;100.00
56721;BME280;53183;47.412;18.884;2022-11-03T12:19:46;99773.56;;;11.61;100.00
56721;BME280;53183;47.412;18.884;2022-11-03T12:22:40;99769.56;;;11.54;100.00
56721;BME280;53183;47.412;18.884;2022-11-03T12:25:34;99767.75;;;11.54;100.00
56721;BME280;53183;47.412;18.884;2022-11-03T12:28:02;99758.72;;;11.58;100.00
56721;BME280;53183;47.412;18.884;2022-11-03T12:30:29;99762.22;;;11.59;100.00
56721;BME280;53183;47.412;18.884;2022-11-03T12:33:02;99758.72;;;11.58;100.00
56721;BME280;53183;47.412;18.884;2022-11-03T12:35:32;99753.19;;;11.63;100.00
56721;BME280;53183;47.412;18.884;2022-11-03T12:38:00;99751.34;;;11.47;100.00
56721;BME280;53183;47.412;18.884;2022-11-03T12:40:27;99739.78;;;11.66;100.00
56721;BME280;53183;47.412;18.884;2022-11-03T12:42:54;99740.91;;;11.62;100.00
56721;BME280;53183;47.412;18.884;2022-11-03T12:45:21;99742.25;;;11.69;100.00
56721;BME280;53183;47.412;18.884;2022-11-03T12:47:48;99742.59;;;11.63;100.00
56721;BME280;53183;47.412;18.884;2022-11-03T12:50:15;99742.25;;;11.69;100.00
56721;BME280;53183;47.412;18.884;2022-11-03T12:52:42;99733.47;;;11.68;100.00
56721;BME280;53183;47.412;18.884;2022-11-03T12:55:09;99728.56;;;11.61;100.00
56721;BME280;53183;47.412;18.884;2022-11-03T12:57:37;99734.66;;;11.63;100.00
56721;BME280;53183;47.412;18.884;2022-11-03T13:00:05;99732.25;;;11.74;100.00
56721;BME280;53183;47.412;18.884;2022-11-03T13:02:32;99719.87;;;11.74;100.00
56721;BME280;53183;47.412;18.884;2022-11-03T13:05:00;99731.56;;;11.70;100.00
56721;BME280;53183;47.412;18.884;2022-11-03T13:07:27;99714.94;;;11.68;100.00
56721;BME280;53183;47.412;18.884;2022-11-03T13:10:03;99720.47;;;11.64;100.00
56721;BME280;53183;47.412;18.884;2022-11-03T13:12:30;99716.81;;;11.66;100.00
56721;BME280;53183;47.412;18.884;2022-11-03T13:14:59;99710.56;;;11.67;100.00
56721;BME280;53183;47.412;18.884;2022-11-03T13:17:27;99708.53;;;11.72;100.00
56721;BME280;53183;47.412;18.884;2022-11-03T13:20:11;99700.12;;;11.64;100.00
56721;BME280;53183;47.412;18.884;2022-11-03T13:22:40;99702.19;;;11.59;100.00
56721;BME280;53183;47.412;18.884;2022-11-03T13:25:08;99700.91;;;11.66;100.00
56721;BME280;53183;47.412;18.884;2022-11-03T13:27:36;99691.69;;;11.73;100.00
56721;BME280;53183;47.412;18.884;2022-11-03T13:30:04;99692.12;;;11.66;100.00
56721;BME280;53183;47.412;18.884;2022-11-03T13:32:32;99689.06;;;11.73;100.00
56721;BME280;53183;47.412;18.884;2022-11-03T13:34:59;99687.19;;;11.76;100.00
56721;BME280;53183;47.412;18.884;2022-11-03T13:37:26;99680.34;;;11.71;100.00
56721;BME280;53183;47.412;18.884;2022-11-03T13:39:53;99680.59;;;11.67;100.00
56721;BME280;53183;47.412;18.884;2022-11-03T13:42:20;99680.44;;;11.70;100.00
56721;BME280;53183;47.412;18.884;2022-11-03T13:44:47;99678.47;;;11.73;100.00
56721;BME280;53183;47.412;18.884;2022-11-03T13:47:15;99679.41;;;11.72;100.00
56721;BME280;53183;47.412;18.884;2022-11-03T13:49:42;99679.91;;;11.63;100.00
56721;BME280;53183;47.412;18.884;2022-11-03T13:52:30;99685.19;;;11.63;100.00
56721;BME280;53183;47.412;18.884;2022-11-03T13:54:57;99683.91;;;11.70;100.00
56721;BME280;53183;47.412;18.884;2022-11-03T13:57:44;99676.31;;;11.64;100.00
56721;BME280;53183;47.412;18.884;2022-11-03T14:00:31;99687.41;;;11.71;100.00
56721;BME280;53183;47.412;18.884;2022-11-03T14:02:58;99690.44;;;11.65;100.00
56721;BME280;53183;47.412;18.884;2022-11-03T14:05:45;99672.97;;;11.61;100.00
56721;BME280;53183;47.412;18.884;2022-11-03T14:08:12;99678.78;;;11.51;100.00
56721;BME280;53183;47.412;18.884;2022-11-03T14:10:39;99666.00;;;11.60;100.00
56721;BME280;53183;47.412;18.884;2022-11-03T14:13:06;99669.91;;;11.53;100.00
56721;BME280;53183;47.412;18.884;2022-11-03T14:15:34;99666.81;;;11.44;100.00
56721;BME280;53183;47.412;18.884;2022-11-03T14:18:02;99662.38;;;11.45;100.00
56721;BME280;53183;47.412;18.884;2022-11-03T14:20:29;99659.63;;;11.31;100.00
56721;BME280;53183;47.412;18.884;2022-11-03T14:22:56;99668.00;;;11.23;100.00